createdAt,value
2023-05-10T00:04:21.219Z,12.39
2023-05-10T00:09:23.637Z,12.37
2023-05-10T00:14:25.918Z,12.37
2023-05-10T00:19:28.240Z,12.34
2023-05-10T00:24:30.516Z,12.32
2023-05-10T00:29:32.823Z,12.30
2023-05-10T00:34:35.609Z,12.28
2023-05-10T00:39:37.889Z,12.28
2023-05-10T00:44:40.264Z,12.27
2023-05-10T00:49:42.643Z,12.21
2023-05-10T00:54:44.904Z,12.17
2023-05-10T00:59:47.207Z,12.15
2023-05-10T01:04:49.499Z,12.16
2023-05-10T01:09:51.989Z,12.16
2023-05-10T01:14:54.334Z,12.06
2023-05-10T01:19:56.670Z,12.11
2023-05-10T01:24:59.402Z,12.07
2023-05-10T01:30:14.697Z,12.07
2023-05-10T01:35:18.314Z,12.01
2023-05-10T01:40:21.450Z,11.99
2023-05-10T01:45:24.138Z,11.98
2023-05-10T01:50:27.753Z,11.96
2023-05-10T01:55:30.495Z,11.93
2023-05-10T02:00:33.205Z,11.94
2023-05-10T02:05:35.656Z,11.98
2023-05-10T02:10:38.071Z,11.96
2023-05-10T02:15:40.412Z,11.92
2023-05-10T02:20:42.680Z,11.92
2023-05-10T02:25:45.034Z,11.91
2023-05-10T02:30:47.651Z,11.93
2023-05-10T02:35:49.954Z,11.89
2023-05-10T02:40:52.513Z,11.89
2023-05-10T02:45:55.123Z,11.84
2023-05-10T02:50:57.434Z,11.82
2023-05-10T02:55:59.786Z,11.83
2023-05-10T03:01:02.117Z,11.82
2023-05-10T03:06:04.600Z,11.80
2023-05-10T03:11:07.142Z,11.81
2023-05-10T03:16:09.546Z,11.82
2023-05-10T03:21:13.348Z,11.79
2023-05-10T03:26:15.696Z,11.80
2023-05-10T03:31:17.994Z,11.82
2023-05-10T03:36:20.356Z,11.86
2023-05-10T03:41:22.662Z,11.89
2023-05-10T03:46:24.990Z,11.83
2023-05-10T03:51:29.076Z,11.85
2023-05-10T03:56:31.408Z,11.87
2023-05-10T04:01:33.772Z,11.86
2023-05-10T04:06:36.250Z,11.89
2023-05-10T04:11:38.654Z,11.88
2023-05-10T04:16:41.325Z,11.92
2023-05-10T04:21:43.726Z,11.98
2023-05-10T04:26:46.452Z,11.97
2023-05-10T04:31:49.750Z,11.99
2023-05-10T04:36:52.080Z,12.08
2023-05-10T04:41:54.457Z,12.03
2023-05-10T04:46:56.753Z,12.01
2023-05-10T04:51:59.046Z,11.89
2023-05-10T04:57:01.640Z,11.93
2023-05-10T05:02:04.441Z,11.93
2023-05-10T05:07:07.212Z,11.68
2023-05-10T05:12:14.762Z,11.60
2023-05-10T05:17:17.125Z,11.44
2023-05-10T05:22:20.395Z,11.41
2023-05-10T05:27:25.035Z,11.21
2023-05-10T05:32:27.439Z,11.08
2023-05-10T05:37:29.934Z,10.90
2023-05-10T05:42:32.812Z,10.97
2023-05-10T05:47:35.207Z,10.93
2023-05-10T05:52:37.584Z,11.14
2023-05-10T05:57:40.115Z,11.21
2023-05-10T06:02:42.538Z,11.34
2023-05-10T06:07:45.273Z,11.59
2023-05-10T06:12:47.651Z,11.75
2023-05-10T06:17:50.168Z,11.85
2023-05-10T06:22:52.544Z,11.88
2023-05-10T06:27:58.385Z,12.15
2023-05-10T06:33:00.921Z,12.67
2023-05-10T06:38:03.363Z,12.79
2023-05-10T06:43:05.670Z,13.20
2023-05-10T06:48:09.474Z,13.24
2023-05-10T06:53:13.054Z,13.47
2023-05-10T06:58:15.372Z,13.31
2023-05-10T07:03:18.118Z,13.45
2023-05-10T07:08:20.537Z,13.64
2023-05-10T07:13:23.092Z,13.92
2023-05-10T07:18:25.924Z,14.02
2023-05-10T07:23:28.606Z,13.97
2023-05-10T07:28:31.169Z,14.24
2023-05-10T07:33:33.543Z,14.13
2023-05-10T07:38:36.142Z,14.31
2023-05-10T07:43:39.125Z,14.80
2023-05-10T07:48:41.714Z,14.43
2023-05-10T07:53:44.317Z,14.03
2023-05-10T07:58:46.618Z,14.68
2023-05-10T08:03:49.384Z,15.72
2023-05-10T08:08:52.424Z,15.39
2023-05-10T08:13:54.827Z,16.00
2023-05-10T08:18:57.222Z,16.52
2023-05-10T08:23:59.759Z,16.34
2023-05-10T08:29:02.047Z,16.47
2023-05-10T08:34:04.691Z,16.78
2023-05-10T08:39:13.518Z,15.76
2023-05-10T08:44:21.806Z,14.82
2023-05-10T08:49:24.102Z,14.54
2023-05-10T08:54:26.473Z,15.52
2023-05-10T08:59:28.794Z,15.35
2023-05-10T09:04:31.168Z,15.37
2023-05-10T09:09:33.544Z,15.29
2023-05-10T09:14:36.198Z,16.00
2023-05-10T09:19:38.901Z,16.95
2023-05-10T09:24:46.490Z,16.70
2023-05-10T09:29:48.847Z,16.45
2023-05-10T09:34:51.222Z,16.78
2023-05-10T09:39:53.553Z,17.17
2023-05-10T09:44:55.856Z,16.49
2023-05-10T09:50:04.053Z,16.55
2023-05-10T09:55:06.699Z,18.15
2023-05-10T10:00:09.825Z,17.57
2023-05-10T10:05:12.213Z,17.71
2023-05-10T10:10:14.564Z,17.73
2023-05-10T10:15:17.379Z,18.23
2023-05-10T10:20:19.926Z,17.82
2023-05-10T10:25:23.516Z,17.36
2023-05-10T10:30:26.520Z,17.48
2023-05-10T10:35:29.267Z,18.40
2023-05-10T10:40:34.663Z,19.60
2023-05-10T10:45:37.674Z,19.80
2023-05-10T10:50:39.986Z,19.57
2023-05-10T10:55:42.267Z,18.83
2023-05-10T11:00:46.402Z,17.70
2023-05-10T11:05:48.800Z,17.81
2023-05-10T11:10:53.048Z,17.83
2023-05-10T11:15:55.843Z,17.99
2023-05-10T11:20:58.172Z,17.97
2023-05-10T11:26:00.485Z,17.58
2023-05-10T11:31:03.335Z,17.25
2023-05-10T11:36:05.793Z,16.61
2023-05-10T11:41:08.117Z,15.92
2023-05-10T11:46:10.505Z,14.99
2023-05-10T11:51:13.025Z,14.55
2023-05-10T11:56:15.632Z,14.29
2023-05-10T12:01:18.010Z,14.56
2023-05-10T12:06:20.283Z,14.44
2023-05-10T12:11:23.056Z,14.22
2023-05-10T12:16:25.401Z,13.76
2023-05-10T12:21:27.725Z,13.55
2023-05-10T12:26:30.046Z,13.35
2023-05-10T12:31:32.407Z,13.33
2023-05-10T12:36:34.897Z,13.22
2023-05-10T12:41:37.289Z,13.21
2023-05-10T12:46:42.440Z,13.24
2023-05-10T12:51:44.858Z,13.10
2023-05-10T12:56:47.227Z,13.06
2023-05-10T13:01:49.515Z,12.91
2023-05-10T13:06:51.895Z,12.70
2023-05-10T13:11:55.244Z,12.96
2023-05-10T13:16:57.612Z,13.05
2023-05-10T13:21:59.985Z,12.96
2023-05-10T13:27:02.334Z,13.02
2023-05-10T13:32:04.693Z,12.95
2023-05-10T13:37:07.096Z,12.98
2023-05-10T13:42:09.465Z,13.24
2023-05-10T13:47:12.297Z,13.09
2023-05-10T13:52:14.718Z,13.20
2023-05-10T13:57:17.761Z,13.33
2023-05-10T14:02:20.112Z,13.51
2023-05-10T14:07:22.587Z,13.33
2023-05-10T14:12:24.945Z,13.52
2023-05-10T14:17:27.248Z,13.42
2023-05-10T14:22:29.956Z,13.35
2023-05-10T14:27:32.348Z,13.25
2023-05-10T14:32:34.917Z,13.23
2023-05-10T14:37:37.764Z,12.78
2023-05-10T14:42:40.135Z,12.59
2023-05-10T14:47:42.448Z,12.33
2023-05-10T14:52:47.069Z,12.13
2023-05-10T14:57:51.224Z,12.07
2023-05-10T15:02:53.756Z,12.17
2023-05-10T15:07:56.787Z,12.04
2023-05-10T15:12:59.162Z,12.04
2023-05-10T15:18:01.564Z,12.04
2023-05-10T15:23:03.964Z,11.97
2023-05-10T15:28:06.670Z,11.83
2023-05-10T15:33:09.661Z,12.07
2023-05-10T15:38:12.879Z,12.04
2023-05-10T15:43:15.464Z,11.86
2023-05-10T15:48:18.510Z,11.83
2023-05-10T15:53:21.254Z,11.73
2023-05-10T15:58:26.532Z,11.67
2023-05-10T16:03:29.151Z,11.64
2023-05-10T16:08:34.447Z,11.40
2023-05-10T16:13:37.016Z,11.34
2023-05-10T16:18:39.832Z,11.24
2023-05-10T16:23:43.278Z,10.98
2023-05-10T16:28:46.004Z,11.08
2023-05-10T16:33:48.373Z,10.95
2023-05-10T16:38:51.270Z,10.91
2023-05-10T16:43:53.605Z,10.89
2023-05-10T16:48:58.677Z,10.81
2023-05-10T16:54:01.421Z,10.73
2023-05-10T16:59:04.212Z,10.65
2023-05-10T17:04:07.402Z,10.50
2023-05-10T17:09:10.350Z,10.47
2023-05-10T17:14:13.403Z,10.28
2023-05-10T17:19:16.147Z,10.21
2023-05-10T17:24:18.862Z,10.20
2023-05-10T17:29:21.523Z,9.92
2023-05-10T17:34:24.113Z,9.83
2023-05-10T17:39:26.848Z,9.80
2023-05-10T17:44:29.615Z,9.81
2023-05-10T17:49:31.940Z,9.74
2023-05-10T17:54:35.508Z,9.78
2023-05-10T17:59:37.847Z,9.80
2023-05-10T18:04:40.649Z,9.70
2023-05-10T18:09:43.015Z,9.72
2023-05-10T18:14:46.021Z,9.70
2023-05-10T18:19:48.651Z,9.57
2023-05-10T18:24:51.009Z,9.54
2023-05-10T18:29:53.368Z,9.53
2023-05-10T18:34:56.587Z,9.53
2023-05-10T18:39:59.304Z,9.57
2023-05-10T18:45:01.633Z,9.58
2023-05-10T18:50:04.696Z,9.50
2023-05-10T18:55:07.333Z,9.50
2023-05-10T19:00:10.232Z,9.51
2023-05-10T19:05:12.917Z,9.46
2023-05-10T19:10:15.359Z,9.40
2023-05-10T19:15:19.410Z,9.39
2023-05-10T19:20:24.165Z,9.36
2023-05-10T19:25:29.743Z,9.30
2023-05-10T19:30:32.273Z,9.34
2023-05-10T19:35:34.986Z,9.26
2023-05-10T19:40:37.936Z,9.24
2023-05-10T19:45:40.719Z,9.29
2023-05-10T19:50:43.462Z,9.30
2023-05-10T19:55:45.992Z,9.27
2023-05-10T20:00:48.936Z,9.15
2023-05-10T20:05:51.340Z,9.21
2023-05-10T20:10:53.709Z,9.20
2023-05-10T20:15:56.002Z,9.16
2023-05-10T20:20:58.323Z,9.17
2023-05-10T20:26:00.638Z,9.23
2023-05-10T20:31:03.368Z,9.28
2023-05-10T20:36:05.715Z,9.25
2023-05-10T20:41:08.006Z,9.28
2023-05-10T20:46:10.363Z,9.32
2023-05-10T20:51:12.986Z,9.30
2023-05-10T20:56:15.406Z,9.30
2023-05-10T21:01:17.786Z,9.29
2023-05-10T21:06:20.239Z,9.25
2023-05-10T21:11:22.674Z,9.24
2023-05-10T21:16:25.221Z,9.25
2023-05-10T21:21:27.511Z,9.18
2023-05-10T21:26:29.896Z,9.08
2023-05-10T21:31:32.246Z,9.06
2023-05-10T21:36:34.673Z,8.97
2023-05-10T21:41:37.233Z,8.96
2023-05-10T21:46:39.638Z,8.96
2023-05-10T21:51:42.227Z,8.96
2023-05-10T21:56:44.929Z,8.90
2023-05-10T22:01:47.395Z,8.93
2023-05-10T22:06:50.104Z,8.93
2023-05-10T22:11:52.446Z,8.89
2023-05-10T22:16:54.818Z,8.79
2023-05-10T22:21:57.200Z,8.84
2023-05-10T22:26:59.620Z,8.82
2023-05-10T22:32:05.491Z,8.77
2023-05-10T22:37:07.758Z,8.75
2023-05-10T22:42:10.358Z,8.75
2023-05-10T22:47:12.636Z,8.77
2023-05-10T22:52:14.931Z,8.73
2023-05-10T22:57:17.287Z,8.66
2023-05-10T23:02:19.609Z,8.60
2023-05-10T23:07:22.667Z,8.60
2023-05-10T23:12:25.175Z,8.56
2023-05-10T23:17:27.487Z,8.53
2023-05-10T23:22:29.821Z,8.46
2023-05-10T23:27:32.145Z,8.40
2023-05-10T23:32:34.538Z,8.42
2023-05-10T23:37:37.148Z,8.46
2023-05-10T23:42:39.435Z,8.43
2023-05-10T23:47:41.908Z,8.41
2023-05-10T23:52:44.200Z,8.37
2023-05-10T23:57:46.556Z,8.44
